createdAt,value
2018-03-26T00:02:12.969Z,98803.73
2018-03-26T00:04:40.788Z,98797.56
2018-03-26T00:07:08.402Z,98794.91
2018-03-26T00:09:36.091Z,98791.88
2018-03-26T00:12:03.816Z,98786.00
2018-03-26T00:14:31.374Z,98780.84
2018-03-26T00:16:58.955Z,98785.44
2018-03-26T00:19:26.657Z,98786.06
2018-03-26T00:21:54.220Z,98771.38
2018-03-26T00:24:22.032Z,98764.50
2018-03-26T00:26:49.641Z,98758.59
2018-03-26T00:29:17.214Z,98748.39
2018-03-26T00:31:44.771Z,98741.30
2018-03-26T00:34:12.370Z,98744.00
2018-03-26T00:36:39.919Z,98729.73
2018-03-26T00:39:07.736Z,98722.89
2018-03-26T00:41:35.299Z,98723.63
2018-03-26T00:44:03.074Z,98728.57
2018-03-26T00:46:30.645Z,98723.70
2018-03-26T00:48:58.205Z,98717.70
2018-03-26T00:51:25.774Z,98707.70
2018-03-26T00:53:53.511Z,98692.31
2018-03-26T00:56:21.070Z,98691.11
2018-03-26T00:58:48.637Z,98690.06
2018-03-26T01:01:16.194Z,98673.38
2018-03-26T01:03:44.021Z,98680.08
2018-03-26T01:06:11.836Z,98675.39
2018-03-26T01:08:39.418Z,98667.69
2018-03-26T01:11:07.003Z,98660.28
2018-03-26T01:13:34.562Z,98666.38
2018-03-26T01:16:02.125Z,98662.64
2018-03-26T01:18:29.686Z,98659.78
2018-03-26T01:20:57.259Z,98663.27
2018-03-26T01:23:24.826Z,98661.30
2018-03-26T01:25:52.549Z,98657.25
2018-03-26T01:28:20.109Z,98653.46
2018-03-26T01:30:47.672Z,98649.98
2018-03-26T01:33:15.242Z,98647.20
2018-03-26T01:35:42.846Z,98645.92
2018-03-26T01:38:10.414Z,98639.78
2018-03-26T01:40:38.187Z,98641.53
2018-03-26T01:43:05.774Z,98641.52
2018-03-26T01:45:33.343Z,98638.45
2018-03-26T01:48:01.143Z,98633.12
2018-03-26T01:50:28.745Z,98636.00
2018-03-26T01:52:56.298Z,98633.28
2018-03-26T01:55:23.869Z,98632.34
2018-03-26T01:57:51.421Z,98643.95
2018-03-26T02:00:18.990Z,98640.16
2018-03-26T02:02:46.556Z,98642.02
2018-03-26T02:05:14.165Z,98644.06
2018-03-26T02:07:41.788Z,98653.61
2018-03-26T02:10:09.601Z,98656.42
2018-03-26T02:12:37.174Z,98646.09
2018-03-26T02:15:04.789Z,98656.25
2018-03-26T02:17:32.450Z,98666.92
2018-03-26T02:20:00.010Z,98663.44
2018-03-26T02:22:27.568Z,98658.28
2018-03-26T02:24:55.186Z,98656.64
2018-03-26T02:27:22.923Z,98646.30
2018-03-26T02:29:50.503Z,98632.42
2018-03-26T02:32:18.066Z,98628.20
2018-03-26T02:34:45.670Z,98634.38
2018-03-26T02:37:13.497Z,98642.74
2018-03-26T02:39:41.105Z,98648.31
2018-03-26T02:42:08.937Z,98657.42
2018-03-26T02:44:36.494Z,98661.30
2018-03-26T02:47:04.268Z,98662.05
2018-03-26T02:49:31.825Z,98663.86
2018-03-26T02:51:59.386Z,98645.42
2018-03-26T02:54:26.970Z,98625.98
2018-03-26T02:56:54.522Z,98602.55
2018-03-26T02:59:22.258Z,98583.34
2018-03-26T03:01:49.823Z,98574.75
2018-03-26T03:04:17.593Z,98602.83
2018-03-26T03:06:45.203Z,98614.17
2018-03-26T03:09:12.929Z,98625.91
2018-03-26T03:11:40.559Z,98622.78
2018-03-26T03:14:08.178Z,98634.05
2018-03-26T03:16:35.983Z,98619.78
2018-03-26T03:19:03.803Z,98619.23
2018-03-26T03:21:31.410Z,98617.80
2018-03-26T03:23:58.990Z,98611.41
2018-03-26T03:26:26.588Z,98617.36
2018-03-26T03:28:54.185Z,98599.83
2018-03-26T03:31:21.793Z,98582.75
2018-03-26T03:33:49.380Z,98574.80
2018-03-26T03:36:16.958Z,98569.77
2018-03-26T03:38:44.740Z,98566.86
2018-03-26T03:41:12.299Z,98580.65
2018-03-26T03:43:40.081Z,98590.16
2018-03-26T03:46:07.810Z,98609.69
2018-03-26T03:48:35.620Z,98599.68
2018-03-26T03:51:03.436Z,98592.66
2018-03-26T03:53:30.993Z,98587.06
2018-03-26T03:55:58.657Z,98591.67
2018-03-26T03:58:26.227Z,98593.79
2018-03-26T04:00:54.007Z,98594.06
2018-03-26T04:03:21.691Z,98593.96
2018-03-26T04:05:49.408Z,98598.45
2018-03-26T04:08:17.049Z,98596.33
2018-03-26T04:10:44.626Z,98595.31
2018-03-26T04:13:12.195Z,98598.14
2018-03-26T04:15:39.753Z,98601.86
2018-03-26T04:18:07.337Z,98598.97
2018-03-26T04:20:34.937Z,98593.92
2018-03-26T04:23:02.496Z,98596.53
2018-03-26T04:25:30.076Z,98581.96
2018-03-26T04:27:57.634Z,98571.25
2018-03-26T04:30:25.189Z,98574.12
2018-03-26T04:32:52.754Z,98588.37
2018-03-26T04:35:20.313Z,98589.92
2018-03-26T04:37:47.891Z,98585.91
2018-03-26T04:40:15.446Z,98597.26
2018-03-26T04:42:43.001Z,98602.80
2018-03-26T04:45:10.577Z,98603.16
2018-03-26T04:47:38.141Z,98612.06
2018-03-26T04:50:05.714Z,98606.72
2018-03-26T04:52:33.274Z,98612.41
2018-03-26T04:55:00.840Z,98615.30
2018-03-26T04:57:28.575Z,98603.70
2018-03-26T04:59:56.225Z,98597.33
2018-03-26T05:02:23.802Z,98595.56
2018-03-26T05:04:51.378Z,98590.69
2018-03-26T05:07:18.933Z,98596.89
2018-03-26T05:09:46.705Z,98607.02
2018-03-26T05:12:14.303Z,98603.37
2018-03-26T05:14:41.981Z,98611.11
2018-03-26T05:17:09.533Z,98606.72
2018-03-26T05:19:37.090Z,98614.80
2018-03-26T05:22:04.674Z,98615.83
2018-03-26T05:24:32.411Z,98614.74
2018-03-26T05:26:59.998Z,98613.87
2018-03-26T05:29:27.562Z,98607.06
2018-03-26T05:31:55.122Z,98611.00
2018-03-26T05:34:22.843Z,98607.63
2018-03-26T05:36:50.397Z,98604.64
2018-03-26T05:39:18.219Z,98611.16
2018-03-26T05:41:46.038Z,98604.98
2018-03-26T05:44:13.856Z,98611.95
2018-03-26T05:46:41.424Z,98611.73
2018-03-26T05:49:09.003Z,98608.69
2018-03-26T05:51:36.565Z,98613.01
2018-03-26T05:54:04.326Z,98616.42
2018-03-26T05:56:31.900Z,98619.39
2018-03-26T05:58:59.479Z,98616.55
2018-03-26T06:01:27.046Z,98628.41
2018-03-26T06:03:54.659Z,98621.70
2018-03-26T06:06:22.215Z,98616.08
2018-03-26T06:08:49.934Z,98621.02
2018-03-26T06:11:17.753Z,98628.45
2018-03-26T06:13:45.571Z,98624.47
2018-03-26T06:16:13.150Z,98627.77
2018-03-26T06:18:40.750Z,98625.00
2018-03-26T06:21:08.525Z,98622.01
2018-03-26T06:23:36.345Z,98616.63
2018-03-26T06:26:03.980Z,98612.87
2018-03-26T06:28:31.671Z,98605.62
2018-03-26T06:30:59.283Z,98609.19
2018-03-26T06:33:26.896Z,98605.92
2018-03-26T06:35:54.498Z,98603.95
2018-03-26T06:38:27.971Z,98608.00
2018-03-26T06:40:55.609Z,98617.98
2018-03-26T06:43:23.209Z,98607.94
2018-03-26T06:45:50.769Z,98601.30
2018-03-26T06:48:18.510Z,98605.73
2018-03-26T06:50:46.138Z,98601.03
2018-03-26T06:53:13.695Z,98602.58
2018-03-26T06:55:41.264Z,98609.82
2018-03-26T06:58:08.840Z,98606.64
2018-03-26T07:00:36.615Z,98612.09
2018-03-26T07:03:04.199Z,98619.66
2018-03-26T07:05:31.765Z,98620.00
2018-03-26T07:07:59.467Z,98606.97
2018-03-26T07:10:27.042Z,98618.73
2018-03-26T07:12:54.598Z,98611.77
2018-03-26T07:15:22.165Z,98613.51
2018-03-26T07:17:49.927Z,98601.41
2018-03-26T07:20:17.519Z,98599.44
2018-03-26T07:22:45.107Z,98599.25
2018-03-26T07:25:12.911Z,98599.09
2018-03-26T07:27:40.470Z,98589.27
2018-03-26T07:30:08.033Z,98594.39
2018-03-26T07:32:35.646Z,98594.52
2018-03-26T07:35:03.482Z,98597.88
2018-03-26T07:37:31.059Z,98603.99
2018-03-26T07:39:58.820Z,98602.20
2018-03-26T07:42:26.430Z,98595.22
2018-03-26T07:44:54.028Z,98607.40
2018-03-26T07:47:21.607Z,98615.26
2018-03-26T07:49:49.221Z,98618.08
2018-03-26T07:52:16.786Z,98621.34
2018-03-26T07:54:44.524Z,98629.95
2018-03-26T07:57:12.082Z,98629.59
2018-03-26T07:59:39.694Z,98626.92
2018-03-26T08:02:07.480Z,98619.00
2018-03-26T08:04:35.034Z,98619.58
2018-03-26T08:07:02.606Z,98622.30
2018-03-26T08:09:30.217Z,98623.78
2018-03-26T08:11:57.851Z,98625.91
2018-03-26T08:14:25.567Z,98627.46
2018-03-26T08:16:53.200Z,98627.27
2018-03-26T08:19:20.801Z,98627.05
2018-03-26T08:21:48.374Z,98630.61
2018-03-26T08:24:15.950Z,98624.05
2018-03-26T08:26:43.759Z,98627.39
2018-03-26T08:29:11.575Z,98624.36
2018-03-26T08:31:39.149Z,98620.78
2018-03-26T08:34:06.808Z,98607.20
2018-03-26T08:36:34.383Z,98621.22
2018-03-26T08:39:02.032Z,98623.20
2018-03-26T08:41:29.602Z,98619.45
2018-03-26T08:43:57.194Z,98624.62
2018-03-26T08:46:24.797Z,98620.41
2018-03-26T08:48:52.369Z,98610.79
2018-03-26T08:51:19.990Z,98610.11
2018-03-26T08:53:47.755Z,98603.92
2018-03-26T08:56:15.581Z,98606.43
2018-03-26T08:58:43.158Z,98601.02
2018-03-26T09:01:10.733Z,98607.13
2018-03-26T09:03:38.374Z,98601.63
2018-03-26T09:06:06.144Z,98601.41
2018-03-26T09:08:33.868Z,98597.83
2018-03-26T09:11:01.427Z,98611.05
2018-03-26T09:13:28.982Z,98596.78
2018-03-26T09:15:56.586Z,98591.62
2018-03-26T09:18:24.154Z,98594.27
2018-03-26T09:23:18.935Z,98599.32
2018-03-26T09:25:46.542Z,98594.66
2018-03-26T09:28:14.106Z,98594.83
2018-03-26T09:30:41.924Z,98580.20
2018-03-26T09:33:09.495Z,98575.37
2018-03-26T09:35:37.150Z,98570.30
2018-03-26T09:38:04.790Z,98572.17
2018-03-26T09:40:32.544Z,98579.31
2018-03-26T09:43:00.190Z,98586.81
2018-03-26T09:45:27.929Z,98577.67
2018-03-26T09:47:55.753Z,98579.95
2018-03-26T09:50:23.458Z,98585.86
2018-03-26T09:52:51.031Z,98579.25
2018-03-26T09:55:18.717Z,98572.84
2018-03-26T09:57:46.288Z,98573.13
2018-03-26T10:00:14.129Z,98570.62
2018-03-26T10:02:41.856Z,98567.40
2018-03-26T10:05:09.442Z,98573.15
2018-03-26T10:07:37.151Z,98566.33
2018-03-26T10:10:04.758Z,98567.45
2018-03-26T10:12:32.513Z,98566.96
2018-03-26T10:15:00.066Z,98564.97
2018-03-26T10:17:27.758Z,98563.80
2018-03-26T10:19:55.367Z,98564.14
2018-03-26T10:22:22.939Z,98567.70
2018-03-26T10:24:50.718Z,98569.52
2018-03-26T10:27:18.287Z,98568.87
2018-03-26T10:29:45.853Z,98574.75
2018-03-26T10:32:13.414Z,98570.77
2018-03-26T10:34:41.030Z,98573.44
2018-03-26T10:37:08.601Z,98565.56
2018-03-26T10:39:36.326Z,98562.82
2018-03-26T10:42:04.105Z,98548.55
2018-03-26T10:44:31.669Z,98547.73
2018-03-26T10:46:59.256Z,98543.95
2018-03-26T10:49:26.954Z,98535.44
2018-03-26T10:51:54.606Z,98536.75
2018-03-26T10:54:22.170Z,98521.33
2018-03-26T10:56:49.741Z,98515.30
2018-03-26T10:59:17.318Z,98513.13
2018-03-26T11:01:44.875Z,98514.30
2018-03-26T11:04:12.696Z,98518.31
2018-03-26T11:06:40.294Z,98515.17
2018-03-26T11:09:08.032Z,98530.99
2018-03-26T11:11:35.628Z,98533.73
2018-03-26T11:14:03.476Z,98537.97
2018-03-26T11:16:31.296Z,98527.67
2018-03-26T11:18:58.882Z,98535.27
2018-03-26T11:21:26.732Z,98528.37
2018-03-26T11:23:54.549Z,98532.66
2018-03-26T11:26:22.239Z,98533.04
2018-03-26T11:28:49.825Z,98522.08
2018-03-26T11:31:17.414Z,98516.51
2018-03-26T11:33:45.015Z,98509.67
2018-03-26T11:36:12.647Z,98504.88
2018-03-26T11:38:40.529Z,98508.95
2018-03-26T11:41:08.172Z,98505.13
2018-03-26T11:43:35.961Z,98509.34
2018-03-26T11:46:03.703Z,98505.63
2018-03-26T11:48:31.297Z,98500.30
2018-03-26T11:50:58.954Z,98503.05
2018-03-26T11:53:26.560Z,98504.79
2018-03-26T11:55:54.150Z,98513.24
2018-03-26T11:58:21.746Z,98510.02
2018-03-26T12:00:49.350Z,98521.39
2018-03-26T12:03:17.118Z,98515.88
2018-03-26T12:05:44.719Z,98508.38
2018-03-26T12:08:12.366Z,98519.24
2018-03-26T12:10:40.191Z,98512.70
2018-03-26T12:13:07.820Z,98511.47
2018-03-26T12:15:35.514Z,98513.99
2018-03-26T12:18:03.102Z,98505.72
2018-03-26T12:20:42.529Z,98507.10
2018-03-26T12:23:21.855Z,98511.20
2018-03-26T12:25:49.519Z,98506.63
2018-03-26T12:28:29.102Z,98501.70
2018-03-26T12:30:56.754Z,98492.79
2018-03-26T12:33:24.342Z,98497.83
2018-03-26T12:35:55.789Z,98498.27
2018-03-26T12:38:23.383Z,98498.84
2018-03-26T12:40:58.918Z,98505.13
2018-03-26T12:43:26.509Z,98506.12
2018-03-26T12:46:06.049Z,98504.78
2018-03-26T12:48:33.649Z,98507.06
2018-03-26T12:51:13.037Z,98511.50
2018-03-26T12:53:40.816Z,98501.48
2018-03-26T12:56:08.442Z,98510.69
2018-03-26T12:58:50.823Z,98507.89
2018-03-26T13:01:30.292Z,98504.91
2018-03-26T13:03:58.110Z,98506.99
2018-03-26T13:06:25.929Z,98501.42
2018-03-26T13:08:53.582Z,98499.13
2018-03-26T13:11:21.176Z,98491.77
2018-03-26T13:13:48.811Z,98488.17
2018-03-26T13:16:16.408Z,98495.27
2018-03-26T13:18:44.014Z,98502.33
2018-03-26T13:21:11.680Z,98505.70
2018-03-26T13:23:39.257Z,98503.05
2018-03-26T13:26:06.957Z,98510.08
2018-03-26T13:28:34.566Z,98512.69
2018-03-26T13:31:02.150Z,98511.64
2018-03-26T13:33:29.839Z,98504.00
2018-03-26T13:35:57.481Z,98504.95
2018-03-26T13:38:25.072Z,98503.25
2018-03-26T13:40:52.879Z,98487.53
2018-03-26T13:43:20.697Z,98503.26
2018-03-26T13:45:48.316Z,98499.78
2018-03-26T13:48:15.909Z,98496.62
2018-03-26T13:50:43.538Z,98500.60
2018-03-26T13:53:11.376Z,98498.16
2018-03-26T13:55:39.189Z,98492.98
2018-03-26T13:58:07.011Z,98497.53
2018-03-26T14:00:34.661Z,98483.77
2018-03-26T14:03:02.274Z,98491.73
2018-03-26T14:05:29.898Z,98494.64
2018-03-26T14:07:57.649Z,98503.20
2018-03-26T14:10:36.998Z,98502.20
2018-03-26T14:16:20.127Z,98513.20
2018-03-26T14:18:47.960Z,98510.55
2018-03-26T14:21:15.658Z,98509.06
2018-03-26T14:23:43.419Z,98506.87
2018-03-26T14:26:11.076Z,98504.38
2018-03-26T14:28:38.833Z,98504.59
2018-03-26T14:31:06.655Z,98510.28
2018-03-26T14:33:34.474Z,98510.97
2018-03-26T14:36:02.293Z,98511.72
2018-03-26T14:38:30.107Z,98508.50
2018-03-26T14:40:57.816Z,98509.05
2018-03-26T14:43:25.611Z,98515.42
2018-03-26T14:45:53.210Z,98513.95
2018-03-26T14:48:20.867Z,98511.88
2018-03-26T14:50:48.465Z,98517.82
2018-03-26T14:53:16.062Z,98512.73
2018-03-26T14:55:43.667Z,98518.66
2018-03-26T14:58:11.259Z,98516.11
2018-03-26T15:00:39.069Z,98514.48
2018-03-26T15:03:06.866Z,98517.48
2018-03-26T15:05:34.517Z,98522.67
2018-03-26T15:08:02.111Z,98526.57
2018-03-26T15:10:29.697Z,98532.28
2018-03-26T15:12:57.294Z,98530.61
2018-03-26T15:15:24.887Z,98529.43
2018-03-26T15:17:52.488Z,98529.22
2018-03-26T15:20:20.086Z,98522.97
2018-03-26T15:22:47.931Z,98515.98
2018-03-26T15:25:15.520Z,98519.95
2018-03-26T15:27:43.110Z,98519.48
2018-03-26T15:30:10.811Z,98524.38
2018-03-26T15:32:38.607Z,98524.59
2018-03-26T15:35:06.422Z,98526.23
2018-03-26T15:37:34.242Z,98530.38
2018-03-26T15:40:01.948Z,98529.91
2018-03-26T15:42:29.777Z,98534.22
2018-03-26T15:44:57.595Z,98542.17
2018-03-26T15:47:25.199Z,98546.02
2018-03-26T15:49:53.032Z,98552.59
2018-03-26T15:52:20.852Z,98548.44
2018-03-26T15:54:48.462Z,98555.16
2018-03-26T15:57:16.106Z,98563.18
2018-03-26T15:59:43.864Z,98552.62
2018-03-26T16:02:10.889Z,98550.03
2018-03-26T16:04:38.534Z,98560.43
2018-03-26T16:07:06.133Z,98565.03
2018-03-26T16:09:33.748Z,98573.38
2018-03-26T16:12:01.346Z,98575.33
2018-03-26T16:14:29.330Z,98576.66
2018-03-26T16:16:57.133Z,98574.41
2018-03-26T16:19:24.919Z,98572.77
2018-03-26T16:21:52.765Z,98573.64
2018-03-26T16:24:20.363Z,98583.92
2018-03-26T16:26:47.981Z,98583.47
2018-03-26T16:29:15.611Z,98590.05
2018-03-26T16:31:43.259Z,98599.16
2018-03-26T16:34:10.858Z,98600.85
2018-03-26T16:36:38.674Z,98587.78
2018-03-26T16:39:06.558Z,98598.42
2018-03-26T16:41:45.862Z,98589.17
2018-03-26T16:44:13.490Z,98593.17
2018-03-26T16:46:41.101Z,98593.90
2018-03-26T16:49:09.005Z,98584.75
2018-03-26T16:51:36.742Z,98590.97
2018-03-26T16:54:04.365Z,98595.49
2018-03-26T16:56:32.161Z,98593.05
2018-03-26T16:58:59.754Z,98600.17
2018-03-26T17:01:27.359Z,98594.92
2018-03-26T17:03:54.954Z,98592.50
2018-03-26T17:06:22.606Z,98599.47
2018-03-26T17:08:50.195Z,98602.78
2018-03-26T17:11:17.784Z,98598.37
2018-03-26T17:13:45.377Z,98599.11
2018-03-26T17:16:13.203Z,98602.16
2018-03-26T17:18:41.022Z,98609.95
2018-03-26T17:21:08.725Z,98615.91
2018-03-26T17:23:36.475Z,98614.81
2018-03-26T17:26:04.132Z,98617.34
2018-03-26T17:28:31.896Z,98630.11
2018-03-26T17:30:59.503Z,98634.84
2018-03-26T17:33:27.096Z,98629.03
2018-03-26T17:35:54.949Z,98636.95
2018-03-26T17:38:22.538Z,98630.63
2018-03-26T17:40:50.197Z,98631.70
2018-03-26T17:43:17.971Z,98636.78
2018-03-26T17:45:45.720Z,98636.30
2018-03-26T17:48:13.502Z,98634.21
2018-03-26T17:50:41.258Z,98650.38
2018-03-26T17:53:09.077Z,98645.33
2018-03-26T17:55:36.895Z,98637.37
2018-03-26T17:58:04.562Z,98653.47
2018-03-26T18:00:32.174Z,98651.01
2018-03-26T18:02:59.776Z,98651.63
2018-03-26T18:05:27.382Z,98651.00
2018-03-26T18:07:55.158Z,98652.95
2018-03-26T18:10:23.015Z,98643.50
2018-03-26T18:12:50.703Z,98648.96
2018-03-26T18:15:18.388Z,98646.73
2018-03-26T18:17:45.992Z,98646.63
2018-03-26T18:20:14.125Z,98654.23
2018-03-26T18:22:41.995Z,98648.95
2018-03-26T18:25:09.581Z,98654.96
2018-03-26T18:27:37.191Z,98652.39
2018-03-26T18:30:04.864Z,98645.99
2018-03-26T18:32:32.767Z,98646.50
2018-03-26T18:35:00.588Z,98644.46
2018-03-26T18:37:28.188Z,98639.02
2018-03-26T18:39:55.783Z,98639.08
2018-03-26T18:42:23.378Z,98637.50
2018-03-26T18:44:51.158Z,98638.43
2018-03-26T18:47:18.978Z,98628.35
2018-03-26T18:49:46.675Z,98626.53
2018-03-26T18:52:14.258Z,98625.55
2018-03-26T18:54:41.993Z,98627.08
2018-03-26T18:57:09.607Z,98630.36
2018-03-26T18:59:37.215Z,98636.48
2018-03-26T19:02:04.826Z,98630.16
2018-03-26T19:04:32.420Z,98636.28
2018-03-26T19:07:00.198Z,98634.08
2018-03-26T19:09:27.774Z,98634.89
2018-03-26T19:11:56.271Z,98637.70
2018-03-26T19:14:24.047Z,98631.17
2018-03-26T19:16:51.673Z,98632.11
2018-03-26T19:19:19.513Z,98629.13
2018-03-26T19:21:47.114Z,98634.62
2018-03-26T19:24:14.770Z,98632.77
2018-03-26T19:26:42.568Z,98639.08
2018-03-26T19:29:10.170Z,98640.98
2018-03-26T19:31:37.782Z,98637.52
2018-03-26T19:34:05.374Z,98635.70
2018-03-26T19:36:32.970Z,98626.20
2018-03-26T19:39:00.574Z,98631.50
2018-03-26T19:41:28.288Z,98634.42
2018-03-26T19:43:55.879Z,98640.77
2018-03-26T19:46:23.711Z,98634.30
2018-03-26T19:48:51.537Z,98633.59
2018-03-26T19:51:19.127Z,98638.17
2018-03-26T19:53:46.783Z,98637.09
2018-03-26T19:56:14.586Z,98633.45
2018-03-26T19:58:42.251Z,98630.78
2018-03-26T20:01:09.911Z,98626.63
2018-03-26T20:03:37.744Z,98632.10
2018-03-26T20:06:05.540Z,98633.77
2018-03-26T20:08:33.131Z,98628.98
2018-03-26T20:11:00.734Z,98629.02
2018-03-26T20:13:28.330Z,98625.66
2018-03-26T20:15:55.928Z,98631.14
2018-03-26T20:18:23.522Z,98633.93
2018-03-26T20:20:51.535Z,98632.88
2018-03-26T20:23:19.232Z,98632.84
2018-03-26T20:25:47.002Z,98633.09
2018-03-26T20:28:14.669Z,98624.16
2018-03-26T20:30:42.274Z,98629.30
2018-03-26T20:33:09.865Z,98633.68
2018-03-26T20:35:37.486Z,98637.58
2018-03-26T20:38:05.091Z,98633.01
2018-03-26T20:40:32.753Z,98625.59
2018-03-26T20:43:00.349Z,98627.30
2018-03-26T20:45:27.937Z,98630.74
2018-03-26T20:47:55.532Z,98621.30
2018-03-26T20:50:23.143Z,98622.41
2018-03-26T20:52:50.787Z,98607.59
2018-03-26T20:55:18.616Z,98604.45
2018-03-26T20:57:46.273Z,98594.21
2018-03-26T21:00:14.154Z,98595.56
2018-03-26T21:02:41.741Z,98590.47
2018-03-26T21:05:09.589Z,98591.83
2018-03-26T21:07:37.182Z,98588.73
2018-03-26T21:10:04.891Z,98586.02
2018-03-26T21:12:32.643Z,98598.05
2018-03-26T21:15:00.252Z,98589.41
2018-03-26T21:17:27.885Z,98595.47
2018-03-26T21:19:55.487Z,98593.25
2018-03-26T21:22:23.166Z,98591.39
2018-03-26T21:24:50.749Z,98591.35
2018-03-26T21:27:18.349Z,98597.67
2018-03-26T21:29:46.050Z,98593.97
2018-03-26T21:32:13.672Z,98591.16
2018-03-26T21:34:41.342Z,98589.19
2018-03-26T21:37:08.944Z,98591.37
2018-03-26T21:39:36.546Z,98593.66
2018-03-26T21:42:04.397Z,98594.28
2018-03-26T21:44:32.010Z,98596.03
2018-03-26T21:46:59.796Z,98591.10
2018-03-26T21:49:27.614Z,98588.49
2018-03-26T21:51:55.266Z,98597.70
2018-03-26T21:54:22.866Z,98595.16
2018-03-26T21:56:50.458Z,98600.27
2018-03-26T21:59:18.285Z,98596.55
2018-03-26T22:01:46.105Z,98599.25
2018-03-26T22:04:13.923Z,98598.34
2018-03-26T22:06:41.555Z,98600.53
2018-03-26T22:09:09.214Z,98606.60
2018-03-26T22:11:37.042Z,98607.25
2018-03-26T22:14:04.673Z,98593.80
2018-03-26T22:16:32.269Z,98596.52
2018-03-26T22:18:59.872Z,98594.78
2018-03-26T22:21:27.469Z,98601.00
2018-03-26T22:23:55.247Z,98603.02
2018-03-26T22:26:22.939Z,98602.03
2018-03-26T22:28:50.548Z,98605.05
2018-03-26T22:31:18.297Z,98602.65
2018-03-26T22:33:46.139Z,98605.67
2018-03-26T22:36:13.844Z,98619.89
2018-03-26T22:38:41.677Z,98612.66
2018-03-26T22:41:09.266Z,98607.07
2018-03-26T22:43:36.906Z,98617.69
2018-03-26T22:46:04.696Z,98615.83
2018-03-26T22:48:32.453Z,98621.92
2018-03-26T22:51:00.226Z,98619.03
2018-03-26T22:53:27.805Z,98619.80
2018-03-26T22:55:55.501Z,98622.34
2018-03-26T22:58:23.090Z,98619.67
2018-03-26T23:00:50.753Z,98620.81
2018-03-26T23:03:18.342Z,98621.58
2018-03-26T23:05:45.933Z,98630.06
2018-03-26T23:08:13.549Z,98624.45
2018-03-26T23:10:41.134Z,98634.94
2018-03-26T23:13:08.746Z,98633.05
2018-03-26T23:15:36.326Z,98625.05
2018-03-26T23:18:04.017Z,98638.67
2018-03-26T23:20:31.608Z,98637.45
2018-03-26T23:22:59.285Z,98637.81
2018-03-26T23:25:27.118Z,98639.73
2018-03-26T23:27:54.702Z,98640.19
2018-03-26T23:30:22.306Z,98636.43
2018-03-26T23:32:50.051Z,98641.75
2018-03-26T23:35:17.693Z,98648.20
2018-03-26T23:37:45.281Z,98648.32
2018-03-26T23:40:12.866Z,98642.64
2018-03-26T23:42:40.529Z,98649.17
2018-03-26T23:45:08.102Z,98648.23
2018-03-26T23:47:35.878Z,98643.94
2018-03-26T23:50:03.664Z,98644.80
2018-03-26T23:52:31.330Z,98644.59
2018-03-26T23:54:58.910Z,98640.36
2018-03-26T23:57:26.497Z,98638.67
2018-03-26T23:59:54.230Z,98635.94
